createdAt,value
2023-05-15T00:00:19.225Z,39.25
2023-05-15T00:01:19.200Z,39.24
2023-05-15T00:02:19.271Z,39.23
2023-05-15T00:03:19.269Z,39.23
2023-05-15T00:04:19.222Z,39.24
2023-05-15T00:05:19.177Z,39.24
2023-05-15T00:06:19.264Z,39.25
2023-05-15T00:07:19.159Z,39.24
2023-05-15T00:08:19.151Z,39.24
2023-05-15T00:09:19.134Z,39.25
2023-05-15T00:10:19.135Z,39.24
2023-05-15T00:11:19.122Z,39.26
2023-05-15T00:12:19.109Z,39.26
2023-05-15T00:13:19.091Z,39.24
2023-05-15T00:14:19.082Z,39.24
2023-05-15T00:15:19.084Z,39.23
2023-05-15T00:16:19.092Z,39.23
2023-05-15T00:17:19.053Z,39.27
2023-05-15T00:18:19.064Z,39.27
2023-05-15T00:19:19.108Z,39.25
2023-05-15T00:20:19.027Z,39.27
2023-05-15T00:21:19.021Z,39.26
2023-05-15T00:22:19.012Z,39.24
2023-05-15T00:23:18.987Z,39.25
2023-05-15T00:24:18.983Z,39.25
2023-05-15T00:25:18.982Z,39.26
2023-05-15T00:26:18.973Z,39.26
2023-05-15T00:27:19.019Z,39.27
2023-05-15T00:28:19.054Z,39.27
2023-05-15T00:29:19.100Z,39.28
2023-05-15T00:30:19.210Z,39.28
2023-05-15T00:31:19.205Z,39.26
2023-05-15T00:32:19.224Z,39.30
2023-05-15T00:33:19.281Z,39.28
2023-05-15T00:34:19.314Z,39.28
2023-05-15T00:35:19.414Z,39.29
2023-05-15T00:36:19.391Z,39.29
2023-05-15T00:37:19.423Z,39.31
2023-05-15T00:38:19.473Z,39.28
2023-05-15T00:39:19.501Z,39.28
2023-05-15T00:40:19.526Z,39.31
2023-05-15T00:41:19.579Z,39.30
2023-05-15T00:42:19.600Z,39.28
2023-05-15T00:43:19.644Z,39.30
2023-05-15T00:44:19.674Z,39.30
2023-05-15T00:45:19.713Z,39.30
2023-05-15T00:46:19.767Z,39.28
2023-05-15T00:47:19.980Z,39.27
2023-05-15T00:48:19.820Z,39.26
2023-05-15T00:49:19.873Z,39.29
2023-05-15T00:50:19.919Z,39.28
2023-05-15T00:51:19.956Z,39.28
2023-05-15T00:52:20.022Z,39.29
2023-05-15T00:53:20.037Z,39.28
2023-05-15T00:54:20.158Z,39.29
2023-05-15T00:55:20.118Z,39.31
2023-05-15T00:56:20.165Z,39.27
2023-05-15T00:57:20.200Z,39.26
2023-05-15T00:58:20.251Z,39.28
2023-05-15T00:59:20.349Z,39.27
2023-05-15T01:00:20.313Z,39.27
2023-05-15T01:01:20.413Z,39.29
2023-05-15T01:02:20.447Z,39.26
2023-05-15T01:03:20.516Z,39.30
2023-05-15T01:04:20.473Z,39.28
2023-05-15T01:05:20.522Z,39.29
2023-05-15T01:06:20.554Z,39.28
2023-05-15T01:07:20.582Z,39.29
2023-05-15T01:08:20.709Z,39.28
2023-05-15T01:09:20.670Z,39.28
2023-05-15T01:10:20.714Z,39.29
2023-05-15T01:11:20.746Z,39.29
2023-05-15T01:12:20.783Z,39.29
2023-05-15T01:13:20.827Z,39.29
2023-05-15T01:14:20.863Z,39.29
2023-05-15T01:15:20.902Z,39.29
2023-05-15T01:16:20.949Z,39.29
2023-05-15T01:17:20.986Z,39.27
2023-05-15T01:18:21.089Z,39.29
2023-05-15T01:19:21.120Z,39.31
2023-05-15T01:20:21.101Z,39.30
2023-05-15T01:21:21.140Z,39.29
2023-05-15T01:22:21.171Z,39.32
2023-05-15T01:23:21.215Z,39.28
2023-05-15T01:24:21.264Z,39.30
2023-05-15T01:25:21.287Z,39.30
2023-05-15T01:26:21.325Z,39.31
2023-05-15T01:27:21.356Z,39.27
2023-05-15T01:28:21.400Z,39.29
2023-05-15T01:29:21.451Z,39.32
2023-05-15T01:30:21.478Z,39.31
2023-05-15T01:31:21.520Z,39.31
2023-05-15T01:32:21.702Z,39.33
2023-05-15T01:33:21.601Z,39.30
2023-05-15T01:34:21.660Z,39.30
2023-05-15T01:35:21.686Z,39.31
2023-05-15T01:36:21.735Z,39.30
2023-05-15T01:37:21.769Z,39.29
2023-05-15T01:38:21.812Z,39.30
2023-05-15T01:39:21.846Z,39.33
2023-05-15T01:40:21.904Z,39.31
2023-05-15T01:41:21.951Z,39.30
2023-05-15T01:42:21.987Z,39.30
2023-05-15T01:43:22.024Z,39.29
2023-05-15T01:44:22.063Z,39.31
2023-05-15T01:45:22.241Z,39.30
2023-05-15T01:46:22.252Z,39.31
2023-05-15T01:47:22.208Z,39.32
2023-05-15T01:48:22.240Z,39.32
2023-05-15T01:49:22.290Z,39.33
2023-05-15T01:50:22.331Z,39.30
2023-05-15T01:51:22.377Z,39.33
2023-05-15T01:52:22.436Z,39.30
2023-05-15T01:53:22.460Z,39.30
2023-05-15T01:54:22.512Z,39.32
2023-05-15T01:55:22.699Z,39.32
2023-05-15T01:56:22.590Z,39.32
2023-05-15T01:57:22.650Z,39.29
2023-05-15T01:58:22.690Z,39.30
2023-05-15T01:59:22.741Z,39.32
2023-05-15T02:00:22.813Z,39.32
2023-05-15T02:01:22.895Z,39.33
2023-05-15T02:02:22.977Z,39.35
2023-05-15T02:03:23.011Z,39.33
2023-05-15T02:04:22.992Z,39.37
2023-05-15T02:05:23.163Z,39.32
2023-05-15T02:06:23.080Z,39.34
2023-05-15T02:07:23.117Z,39.32
2023-05-15T02:08:23.173Z,39.35
2023-05-15T02:09:23.215Z,39.31
2023-05-15T02:10:23.264Z,39.32
2023-05-15T02:11:23.385Z,39.33
2023-05-15T02:12:23.376Z,39.33
2023-05-15T02:13:23.412Z,39.29
2023-05-15T02:14:23.459Z,39.31
2023-05-15T02:15:23.749Z,39.33
2023-05-15T02:16:23.596Z,39.34
2023-05-15T02:17:23.636Z,39.33
2023-05-15T02:18:23.648Z,39.33
2023-05-15T02:19:23.704Z,39.32
2023-05-15T02:20:23.762Z,39.34
2023-05-15T02:21:23.810Z,39.33
2023-05-15T02:22:23.854Z,39.33
2023-05-15T02:23:23.908Z,39.33
2023-05-15T02:24:23.956Z,39.32
2023-05-15T02:25:24.130Z,39.32
2023-05-15T02:26:23.992Z,39.32
2023-05-15T02:27:23.994Z,39.33
2023-05-15T02:28:23.994Z,39.33
2023-05-15T02:29:24.010Z,39.35
2023-05-15T02:30:24.010Z,39.33
2023-05-15T02:31:24.587Z,39.35
2023-05-15T02:32:24.033Z,39.32
2023-05-15T02:33:24.027Z,39.33
2023-05-15T02:34:24.026Z,39.34
2023-05-15T02:35:24.193Z,39.32
2023-05-15T02:36:24.046Z,39.35
2023-05-15T02:37:24.054Z,39.33
2023-05-15T02:38:24.070Z,39.33
2023-05-15T02:39:24.205Z,39.33
2023-05-15T02:40:24.075Z,39.35
2023-05-15T02:41:24.088Z,39.33
2023-05-15T02:42:24.099Z,39.32
2023-05-15T02:43:24.094Z,39.37
2023-05-15T02:44:24.108Z,39.35
2023-05-15T02:45:24.270Z,39.39
2023-05-15T02:46:24.157Z,39.40
2023-05-15T02:47:24.131Z,39.39
2023-05-15T02:48:24.145Z,39.41
2023-05-15T02:49:24.886Z,39.40
2023-05-15T02:50:24.884Z,39.39
2023-05-15T02:51:24.241Z,39.37
2023-05-15T02:52:24.170Z,39.42
2023-05-15T02:53:24.174Z,39.43
2023-05-15T02:54:24.180Z,39.44
2023-05-15T02:55:24.306Z,39.41
2023-05-15T02:56:24.195Z,39.42
2023-05-15T02:57:24.212Z,39.40
2023-05-15T02:58:24.218Z,39.38
2023-05-15T02:59:24.222Z,39.38
2023-05-15T03:00:24.222Z,39.35
2023-05-15T03:01:24.247Z,39.37
2023-05-15T03:02:24.926Z,39.37
2023-05-15T03:03:24.252Z,39.36
2023-05-15T03:04:24.310Z,39.35
2023-05-15T03:05:24.437Z,39.38
2023-05-15T03:06:24.267Z,39.36
2023-05-15T03:07:24.276Z,39.34
2023-05-15T03:08:24.282Z,39.38
2023-05-15T03:09:24.297Z,39.36
2023-05-15T03:10:24.292Z,39.37
2023-05-15T03:11:24.314Z,39.36
2023-05-15T03:12:24.306Z,39.35
2023-05-15T03:13:24.308Z,39.33
2023-05-15T03:14:24.894Z,39.36
2023-05-15T03:15:24.597Z,39.34
2023-05-15T03:16:24.379Z,39.36
2023-05-15T03:17:24.366Z,39.37
2023-05-15T03:18:24.337Z,39.36
2023-05-15T03:19:24.339Z,39.35
2023-05-15T03:20:24.340Z,39.36
2023-05-15T03:21:24.353Z,39.34
2023-05-15T03:22:24.367Z,39.36
2023-05-15T03:23:24.362Z,39.34
2023-05-15T03:24:24.386Z,39.36
2023-05-15T03:25:24.533Z,39.35
2023-05-15T03:26:24.393Z,39.35
2023-05-15T03:27:24.415Z,39.36
2023-05-15T03:28:24.421Z,39.35
2023-05-15T03:29:24.409Z,39.36
2023-05-15T03:30:24.407Z,39.36
2023-05-15T03:31:24.478Z,39.35
2023-05-15T03:32:24.458Z,39.34
2023-05-15T03:33:24.441Z,39.35
2023-05-15T03:34:24.443Z,39.36
2023-05-15T03:35:24.671Z,39.37
2023-05-15T03:36:24.906Z,39.37
2023-05-15T03:37:24.469Z,39.35
2023-05-15T03:38:24.473Z,39.32
2023-05-15T03:39:24.478Z,39.35
2023-05-15T03:40:24.489Z,39.36
2023-05-15T03:41:24.505Z,39.32
2023-05-15T03:42:24.499Z,39.34
2023-05-15T03:43:24.523Z,39.36
2023-05-15T03:44:24.514Z,39.33
2023-05-15T03:45:24.718Z,39.36
2023-05-15T03:46:24.592Z,39.33
2023-05-15T03:47:24.583Z,39.35
2023-05-15T03:48:24.558Z,39.36
2023-05-15T03:49:25.403Z,39.36
2023-05-15T03:50:24.578Z,39.32
2023-05-15T03:51:24.595Z,39.36
2023-05-15T03:52:24.594Z,39.37
2023-05-15T03:53:24.598Z,39.35
2023-05-15T03:54:24.614Z,39.36
2023-05-15T03:55:24.902Z,39.35
2023-05-15T03:56:24.654Z,39.36
2023-05-15T03:57:24.630Z,39.35
2023-05-15T03:58:24.636Z,39.36
2023-05-15T03:59:24.642Z,39.36
2023-05-15T04:00:24.906Z,39.36
2023-05-15T04:01:24.648Z,39.36
2023-05-15T04:02:24.692Z,39.38
2023-05-15T04:03:24.906Z,39.34
2023-05-15T04:04:24.667Z,39.37
2023-05-15T04:05:24.912Z,39.36
2023-05-15T04:06:24.795Z,39.37
2023-05-15T04:07:24.682Z,39.38
2023-05-15T04:08:24.692Z,39.37
2023-05-15T04:09:24.696Z,39.37
2023-05-15T04:10:24.911Z,39.35
2023-05-15T04:11:24.719Z,39.37
2023-05-15T04:12:24.721Z,39.36
2023-05-15T04:13:24.725Z,39.36
2023-05-15T04:14:24.738Z,39.35
2023-05-15T04:15:25.024Z,39.36
2023-05-15T04:16:24.798Z,39.36
2023-05-15T04:17:24.784Z,39.33
2023-05-15T04:18:24.747Z,39.35
2023-05-15T04:19:24.763Z,39.34
2023-05-15T04:20:24.770Z,39.35
2023-05-15T04:21:24.783Z,39.36
2023-05-15T04:22:24.822Z,39.36
2023-05-15T04:23:24.791Z,39.35
2023-05-15T04:24:24.795Z,39.36
2023-05-15T04:25:25.677Z,39.37
2023-05-15T04:26:24.831Z,39.36
2023-05-15T04:27:24.837Z,39.37
2023-05-15T04:28:24.838Z,39.37
2023-05-15T04:29:24.848Z,39.39
2023-05-15T04:30:24.861Z,39.35
2023-05-15T04:31:24.871Z,39.34
2023-05-15T04:32:24.913Z,39.36
2023-05-15T04:33:24.875Z,39.37
2023-05-15T04:34:24.882Z,39.36
2023-05-15T04:35:25.073Z,39.36
2023-05-15T04:36:24.925Z,39.36
2023-05-15T04:37:24.922Z,39.36
2023-05-15T04:38:24.912Z,39.36
2023-05-15T04:39:24.919Z,39.33
2023-05-15T04:40:24.918Z,39.34
2023-05-15T04:41:24.926Z,39.34
2023-05-15T04:42:24.936Z,39.33
2023-05-15T04:43:24.936Z,39.32
2023-05-15T04:44:24.957Z,39.33
2023-05-15T04:45:25.146Z,39.33
2023-05-15T04:46:25.936Z,39.33
2023-05-15T04:47:24.987Z,39.33
2023-05-15T04:48:24.966Z,39.32
2023-05-15T04:49:24.979Z,39.33
2023-05-15T04:50:25.205Z,39.31
2023-05-15T04:51:24.996Z,39.29
2023-05-15T04:52:25.013Z,39.29
2023-05-15T04:53:24.994Z,39.28
2023-05-15T04:54:25.004Z,39.26
2023-05-15T04:55:26.102Z,39.27
2023-05-15T04:56:25.032Z,39.27
2023-05-15T04:57:25.025Z,39.32
2023-05-15T04:58:25.031Z,39.29
2023-05-15T04:59:25.027Z,39.28
2023-05-15T05:00:25.034Z,39.27
2023-05-15T05:01:25.123Z,39.24
2023-05-15T05:02:25.125Z,39.23
2023-05-15T05:03:25.066Z,39.22
2023-05-15T05:04:25.055Z,39.22
2023-05-15T05:05:25.312Z,39.25
2023-05-15T05:06:25.081Z,39.26
2023-05-15T05:07:25.099Z,39.24
2023-05-15T05:08:25.104Z,39.21
2023-05-15T05:09:25.101Z,39.25
2023-05-15T05:10:25.106Z,39.29
2023-05-15T05:11:25.120Z,39.29
2023-05-15T05:12:26.682Z,39.24
2023-05-15T05:13:25.114Z,39.26
2023-05-15T05:14:25.106Z,39.24
2023-05-15T05:15:25.331Z,39.26
2023-05-15T05:16:25.117Z,39.24
2023-05-15T05:17:25.124Z,39.40
2023-05-15T05:18:25.079Z,39.34
2023-05-15T05:19:25.096Z,39.65
2023-05-15T05:20:25.063Z,39.48
2023-05-15T05:21:25.132Z,39.44
2023-05-15T05:22:25.113Z,39.54
2023-05-15T05:23:25.031Z,40.32
2023-05-15T05:24:25.052Z,40.34
2023-05-15T05:25:25.200Z,40.57
2023-05-15T05:26:25.062Z,41.23
2023-05-15T05:27:25.092Z,41.07
2023-05-15T05:28:24.997Z,41.32
2023-05-15T05:29:24.990Z,41.63
2023-05-15T05:30:25.898Z,41.91
2023-05-15T05:31:25.007Z,42.23
2023-05-15T05:32:25.028Z,43.05
2023-05-15T05:33:24.964Z,43.04
2023-05-15T05:34:25.489Z,43.20
2023-05-15T05:35:25.049Z,43.43
2023-05-15T05:36:24.924Z,43.77
2023-05-15T05:37:24.970Z,44.07
2023-05-15T05:38:24.886Z,44.29
2023-05-15T05:39:24.880Z,44.58
2023-05-15T05:40:24.874Z,44.84
2023-05-15T05:41:24.848Z,45.02
2023-05-15T05:42:24.932Z,45.26
2023-05-15T05:43:24.821Z,45.48
2023-05-15T05:44:24.825Z,45.78
2023-05-15T05:45:24.979Z,45.99
2023-05-15T05:46:24.832Z,46.21
2023-05-15T05:47:24.768Z,46.48
2023-05-15T05:48:24.754Z,46.71
2023-05-15T05:49:24.726Z,46.89
2023-05-15T05:50:24.960Z,47.12
2023-05-15T05:51:24.693Z,47.31
2023-05-15T05:52:24.692Z,47.55
2023-05-15T05:53:24.729Z,47.67
2023-05-15T05:54:24.661Z,48.00
2023-05-15T05:55:24.781Z,48.09
2023-05-15T05:56:24.620Z,48.28
2023-05-15T05:57:24.616Z,48.50
2023-05-15T05:58:26.260Z,48.62
2023-05-15T05:59:24.572Z,48.82
2023-05-15T06:00:24.548Z,49.03
2023-05-15T06:01:24.544Z,49.19
2023-05-15T06:02:24.627Z,49.34
2023-05-15T06:03:24.602Z,49.55
2023-05-15T06:04:24.503Z,49.67
2023-05-15T06:05:24.779Z,49.80
2023-05-15T06:06:24.454Z,49.99
2023-05-15T06:07:24.461Z,50.12
2023-05-15T06:08:24.440Z,50.24
2023-05-15T06:09:24.429Z,50.35
2023-05-15T06:10:24.625Z,50.47
2023-05-15T06:11:25.554Z,50.65
2023-05-15T06:12:24.350Z,50.70
2023-05-15T06:13:25.039Z,50.82
2023-05-15T06:14:24.321Z,50.97
2023-05-15T06:15:24.417Z,51.16
2023-05-15T06:16:24.288Z,51.23
2023-05-15T06:17:24.290Z,51.33
2023-05-15T06:18:24.249Z,51.35
2023-05-15T06:19:24.305Z,51.51
2023-05-15T06:20:24.384Z,51.31
2023-05-15T06:21:24.191Z,50.31
2023-05-15T06:22:24.182Z,49.08
2023-05-15T06:23:24.504Z,49.30
2023-05-15T06:24:24.138Z,49.13
2023-05-15T06:25:24.198Z,48.22
2023-05-15T06:26:24.109Z,47.73
2023-05-15T06:27:24.139Z,47.25
2023-05-15T06:28:24.139Z,46.77
2023-05-15T06:29:24.126Z,46.66
2023-05-15T06:30:24.332Z,46.20
2023-05-15T06:31:24.254Z,46.04
2023-05-15T06:32:24.174Z,45.97
2023-05-15T06:33:24.129Z,45.82
2023-05-15T06:34:24.137Z,45.83
2023-05-15T06:35:24.151Z,45.89
2023-05-15T06:36:24.146Z,46.15
2023-05-15T06:37:24.200Z,46.41
2023-05-15T06:38:24.142Z,46.51
2023-05-15T06:39:24.150Z,46.52
2023-05-15T06:40:24.333Z,46.42
2023-05-15T06:41:24.144Z,46.28
2023-05-15T06:42:24.152Z,46.19
2023-05-15T06:43:24.117Z,46.07
2023-05-15T06:44:25.738Z,45.98
2023-05-15T06:45:24.518Z,45.86
2023-05-15T06:46:24.293Z,45.83
2023-05-15T06:47:24.258Z,45.81
2023-05-15T06:48:24.277Z,45.80
2023-05-15T06:49:24.973Z,45.73
2023-05-15T06:50:24.341Z,45.67
2023-05-15T06:51:24.417Z,45.63
2023-05-15T06:52:24.436Z,45.25
2023-05-15T06:53:24.482Z,44.65
2023-05-15T06:54:24.498Z,44.46
2023-05-15T06:55:24.654Z,44.29
2023-05-15T06:56:24.548Z,44.18
2023-05-15T06:57:24.537Z,44.21
2023-05-15T06:58:24.534Z,44.17
2023-05-15T06:59:24.530Z,43.97
2023-05-15T07:00:24.537Z,43.90
2023-05-15T07:01:24.610Z,43.66
2023-05-15T07:02:24.642Z,43.69
2023-05-15T07:03:24.527Z,43.61
2023-05-15T07:04:24.574Z,43.34
2023-05-15T07:05:24.690Z,43.29
2023-05-15T07:06:24.536Z,43.19
2023-05-15T07:07:24.549Z,43.28
2023-05-15T07:08:24.568Z,43.23
2023-05-15T07:09:24.576Z,43.15
2023-05-15T07:10:24.788Z,43.30
2023-05-15T07:11:24.603Z,43.21
2023-05-15T07:12:24.702Z,43.16
2023-05-15T07:13:24.635Z,43.11
2023-05-15T07:14:25.563Z,42.92
2023-05-15T07:15:24.683Z,42.98
2023-05-15T07:16:24.689Z,42.75
2023-05-15T07:17:24.831Z,42.71
2023-05-15T07:18:24.813Z,42.75
2023-05-15T07:19:24.808Z,43.27
2023-05-15T07:20:28.215Z,42.74
2023-05-15T07:21:24.828Z,43.12
2023-05-15T07:22:24.823Z,42.94
2023-05-15T07:23:24.815Z,42.94
2023-05-15T07:24:24.791Z,42.79
2023-05-15T07:25:25.388Z,42.80
2023-05-15T07:26:34.502Z,42.80
2023-05-15T07:27:25.761Z,42.74
2023-05-15T07:28:24.740Z,42.64
2023-05-15T07:29:24.751Z,42.57
2023-05-15T07:30:25.003Z,42.56
2023-05-15T07:31:24.738Z,42.40
2023-05-15T07:32:24.706Z,42.41
2023-05-15T07:33:24.693Z,42.46
2023-05-15T07:34:24.802Z,42.44
2023-05-15T07:35:24.935Z,42.34
2023-05-15T07:36:24.660Z,42.32
2023-05-15T07:37:24.672Z,42.26
2023-05-15T07:38:24.730Z,42.21
2023-05-15T07:39:24.814Z,42.10
2023-05-15T07:40:24.887Z,42.05
2023-05-15T07:41:24.838Z,41.97
2023-05-15T07:42:24.856Z,41.89
2023-05-15T07:43:24.895Z,41.89
2023-05-15T07:44:24.923Z,41.81
2023-05-15T07:45:25.088Z,41.77
2023-05-15T07:46:25.070Z,41.70
2023-05-15T07:47:25.074Z,41.60
2023-05-15T07:48:25.048Z,41.59
2023-05-15T07:49:25.077Z,41.54
2023-05-15T07:50:25.179Z,41.50
2023-05-15T07:51:25.136Z,41.54
2023-05-15T07:52:25.534Z,41.51
2023-05-15T07:53:25.177Z,41.58
2023-05-15T07:54:25.262Z,41.56
2023-05-15T07:55:25.424Z,41.57
2023-05-15T07:56:25.250Z,41.46
2023-05-15T07:57:25.250Z,41.49
2023-05-15T07:58:25.264Z,41.35
2023-05-15T07:59:25.435Z,41.34
2023-05-15T08:00:25.302Z,41.33
2023-05-15T08:01:25.302Z,41.24
2023-05-15T08:02:25.334Z,41.13
2023-05-15T08:03:26.096Z,41.12
2023-05-15T08:04:25.396Z,41.09
2023-05-15T08:05:25.703Z,41.02
2023-05-15T08:06:25.370Z,41.02
2023-05-15T08:07:26.028Z,40.97
2023-05-15T08:08:25.387Z,40.93
2023-05-15T08:09:26.001Z,40.85
2023-05-15T08:10:26.422Z,40.90
2023-05-15T08:11:25.455Z,40.91
2023-05-15T08:12:25.486Z,40.89
2023-05-15T08:13:28.065Z,40.89
2023-05-15T08:14:26.960Z,41.65
2023-05-15T08:15:25.761Z,41.64
2023-05-15T08:16:25.566Z,41.69
2023-05-15T08:17:25.512Z,41.79
2023-05-15T08:18:25.439Z,41.95
2023-05-15T08:19:25.438Z,42.17
2023-05-15T08:20:25.422Z,42.66
2023-05-15T08:21:25.398Z,42.56
2023-05-15T08:22:25.399Z,42.80
2023-05-15T08:23:25.391Z,42.81
2023-05-15T08:24:25.381Z,42.91
2023-05-15T08:25:25.732Z,43.09
2023-05-15T08:26:25.345Z,43.17
2023-05-15T08:27:25.310Z,43.47
2023-05-15T08:28:25.943Z,42.20
2023-05-15T08:29:25.980Z,42.48
2023-05-15T08:30:26.008Z,42.39
2023-05-15T08:31:25.346Z,42.86
2023-05-15T08:32:26.058Z,42.98
2023-05-15T08:33:25.333Z,43.44
2023-05-15T08:34:25.248Z,43.80
2023-05-15T08:35:25.540Z,43.90
2023-05-15T08:36:26.025Z,43.81
2023-05-15T08:37:25.244Z,43.71
2023-05-15T08:38:25.542Z,43.79
2023-05-15T08:39:25.206Z,43.87
2023-05-15T08:40:38.547Z,43.85
2023-05-15T08:41:39.372Z,44.18
2023-05-15T08:42:26.168Z,44.40
2023-05-15T08:43:26.161Z,44.37
2023-05-15T08:44:25.139Z,44.33
2023-05-15T08:45:25.319Z,44.27
2023-05-15T08:46:25.137Z,44.47
2023-05-15T08:47:25.134Z,44.49
2023-05-15T08:48:25.161Z,44.60
2023-05-15T08:49:25.067Z,44.66
2023-05-15T08:50:25.053Z,44.73
2023-05-15T08:51:26.017Z,44.94
2023-05-15T08:52:25.011Z,45.21
2023-05-15T08:53:25.014Z,45.17
2023-05-15T08:54:24.978Z,45.29
2023-05-15T08:55:25.208Z,45.41
2023-05-15T08:56:24.938Z,45.63
2023-05-15T08:57:24.911Z,45.76
2023-05-15T08:58:24.892Z,45.91
2023-05-15T08:59:24.879Z,46.03
2023-05-15T09:00:24.846Z,46.25
2023-05-15T09:01:25.496Z,46.34
2023-05-15T09:02:25.566Z,46.44
2023-05-15T09:03:24.829Z,46.61
2023-05-15T09:04:24.819Z,46.71
2023-05-15T09:05:25.625Z,46.86
2023-05-15T09:06:24.713Z,46.98
2023-05-15T09:07:24.687Z,47.12
2023-05-15T09:08:24.672Z,47.28
2023-05-15T09:09:25.522Z,47.23
2023-05-15T09:10:24.616Z,47.55
2023-05-15T09:11:24.602Z,47.54
2023-05-15T09:12:24.576Z,47.62
2023-05-15T09:13:24.561Z,47.74
2023-05-15T09:14:24.537Z,47.93
2023-05-15T09:15:24.608Z,48.08
2023-05-15T09:16:24.555Z,48.64
2023-05-15T09:17:24.478Z,48.63
2023-05-15T09:18:24.438Z,48.63
2023-05-15T09:19:24.472Z,48.76
2023-05-15T09:20:24.492Z,48.95
2023-05-15T09:21:24.518Z,48.77
2023-05-15T09:22:24.557Z,48.84
2023-05-15T09:23:24.566Z,48.76
2023-05-15T09:24:24.593Z,48.65
2023-05-15T09:25:25.072Z,48.55
2023-05-15T09:26:24.667Z,48.45
2023-05-15T09:27:24.569Z,48.30
2023-05-15T09:28:24.583Z,48.08
2023-05-15T09:29:25.459Z,47.87
2023-05-15T09:30:25.536Z,47.70
2023-05-15T09:31:24.599Z,47.44
2023-05-15T09:32:24.624Z,47.33
2023-05-15T09:33:24.589Z,47.09
2023-05-15T09:34:25.556Z,46.85
2023-05-15T09:35:25.395Z,46.59
2023-05-15T09:36:24.651Z,46.47
2023-05-15T09:37:24.675Z,46.36
2023-05-15T09:38:24.689Z,46.28
2023-05-15T09:39:24.707Z,46.11
2023-05-15T09:40:24.799Z,45.98
2023-05-15T09:41:24.741Z,45.89
2023-05-15T09:42:24.767Z,45.77
2023-05-15T09:43:24.786Z,45.65
2023-05-15T09:44:24.814Z,45.56
2023-05-15T09:45:25.041Z,45.44
2023-05-15T09:46:24.943Z,45.24
2023-05-15T09:47:24.916Z,45.07
2023-05-15T09:48:24.961Z,44.89
2023-05-15T09:49:24.938Z,44.67
2023-05-15T09:50:25.553Z,44.55
2023-05-15T09:51:25.001Z,44.40
2023-05-15T09:52:25.020Z,44.04
2023-05-15T09:53:25.060Z,44.00
2023-05-15T09:54:26.063Z,43.91
2023-05-15T09:55:25.227Z,43.84
2023-05-15T09:56:25.132Z,43.68
2023-05-15T09:57:25.160Z,43.58
2023-05-15T09:58:25.181Z,43.45
2023-05-15T09:59:25.224Z,43.33
2023-05-15T10:00:25.410Z,43.20
2023-05-15T10:01:25.342Z,43.10
2023-05-15T10:02:25.321Z,42.96
2023-05-15T10:03:25.324Z,42.85
2023-05-15T10:04:25.350Z,42.73
2023-05-15T10:05:41.601Z,42.56
2023-05-15T10:06:26.359Z,42.49
2023-05-15T10:07:25.366Z,42.15
2023-05-15T10:08:25.332Z,42.12
2023-05-15T10:09:25.351Z,42.06
2023-05-15T10:10:25.474Z,41.91
2023-05-15T10:11:25.273Z,41.90
2023-05-15T10:12:25.261Z,41.47
2023-05-15T10:13:25.243Z,41.46
2023-05-15T10:14:28.084Z,41.54
2023-05-15T10:15:25.200Z,41.42
2023-05-15T10:16:25.361Z,41.18
2023-05-15T10:17:26.101Z,41.38
2023-05-15T10:18:25.154Z,41.53
2023-05-15T10:19:26.057Z,41.76
2023-05-15T10:20:25.308Z,41.89
2023-05-15T10:21:25.081Z,42.06
2023-05-15T10:22:25.067Z,42.02
2023-05-15T10:23:25.565Z,41.88
2023-05-15T10:24:25.028Z,41.99
2023-05-15T10:25:25.008Z,42.05
2023-05-15T10:26:24.993Z,42.30
2023-05-15T10:27:24.968Z,42.46
2023-05-15T10:28:25.935Z,42.58
2023-05-15T10:29:25.497Z,42.64
2023-05-15T10:30:25.192Z,42.75
2023-05-15T10:31:24.909Z,42.77
2023-05-15T10:32:25.613Z,42.96
2023-05-15T10:33:24.836Z,42.99
2023-05-15T10:34:24.815Z,43.10
2023-05-15T10:35:24.796Z,43.19
2023-05-15T10:36:24.742Z,43.19
2023-05-15T10:37:24.720Z,43.16
2023-05-15T10:38:24.717Z,43.26
2023-05-15T10:39:24.679Z,43.38
2023-05-15T10:40:24.869Z,43.49
2023-05-15T10:41:24.692Z,43.51
2023-05-15T10:42:24.661Z,43.61
2023-05-15T10:43:24.587Z,43.45
2023-05-15T10:44:24.720Z,43.60
2023-05-15T10:45:25.078Z,43.57
2023-05-15T10:46:24.577Z,43.59
2023-05-15T10:47:24.574Z,43.63
2023-05-15T10:48:24.469Z,43.58
2023-05-15T10:49:24.499Z,43.52
2023-05-15T10:50:25.198Z,43.59
2023-05-15T10:51:24.381Z,43.60
2023-05-15T10:52:24.370Z,43.61
2023-05-15T10:53:25.062Z,43.71
2023-05-15T10:54:24.317Z,43.71
2023-05-15T10:55:25.065Z,43.64
2023-05-15T10:56:24.348Z,43.65
2023-05-15T10:57:24.329Z,43.76
2023-05-15T10:58:24.355Z,43.78
2023-05-15T10:59:24.573Z,44.09
2023-05-15T11:00:24.574Z,44.23
2023-05-15T11:01:24.384Z,44.30
2023-05-15T11:02:25.220Z,44.29
2023-05-15T11:03:24.680Z,44.24
2023-05-15T11:04:24.522Z,44.39
2023-05-15T11:05:24.518Z,44.26
2023-05-15T11:06:24.522Z,44.19
2023-05-15T11:07:25.076Z,44.15
2023-05-15T11:08:24.577Z,44.16
2023-05-15T11:09:27.213Z,44.19
2023-05-15T11:10:24.685Z,44.17
2023-05-15T11:11:24.538Z,44.17
2023-05-15T11:12:24.536Z,44.19
2023-05-15T11:13:24.478Z,44.23
2023-05-15T11:14:24.576Z,44.19
2023-05-15T11:15:24.437Z,44.23
2023-05-15T11:16:24.425Z,44.40
2023-05-15T11:17:24.452Z,44.45
2023-05-15T11:18:24.349Z,44.72
2023-05-15T11:19:24.332Z,45.93
2023-05-15T11:20:24.618Z,47.35
2023-05-15T11:21:24.285Z,48.01
2023-05-15T11:22:24.261Z,46.24
2023-05-15T11:23:24.244Z,46.33
2023-05-15T11:24:24.227Z,47.44
2023-05-15T11:25:24.345Z,47.34
2023-05-15T11:26:24.197Z,46.83
2023-05-15T11:27:24.174Z,46.14
2023-05-15T11:28:24.166Z,45.81
2023-05-15T11:29:24.154Z,45.61
2023-05-15T11:30:24.467Z,45.50
2023-05-15T11:31:24.159Z,45.43
2023-05-15T11:32:24.096Z,45.41
2023-05-15T11:33:24.081Z,45.32
2023-05-15T11:34:24.049Z,45.28
2023-05-15T11:35:24.582Z,45.22
2023-05-15T11:36:23.996Z,45.20
2023-05-15T11:37:23.996Z,45.18
2023-05-15T11:38:23.969Z,45.10
2023-05-15T11:39:24.030Z,45.05
2023-05-15T11:40:24.084Z,44.98
2023-05-15T11:41:23.923Z,44.99
2023-05-15T11:42:23.913Z,44.95
2023-05-15T11:43:23.946Z,44.94
2023-05-15T11:44:23.866Z,44.94
2023-05-15T11:45:23.853Z,44.91
2023-05-15T11:46:23.848Z,44.92
2023-05-15T11:47:23.812Z,44.89
2023-05-15T11:48:23.790Z,44.87
2023-05-15T11:49:23.778Z,44.87
2023-05-15T11:50:23.923Z,44.85
2023-05-15T11:51:23.732Z,44.85
2023-05-15T11:52:23.718Z,44.87
2023-05-15T11:53:23.696Z,44.87
2023-05-15T11:54:23.693Z,44.85
2023-05-15T11:55:23.668Z,44.86
2023-05-15T11:56:23.654Z,44.85
2023-05-15T11:57:23.633Z,44.86
2023-05-15T11:58:23.628Z,44.84
2023-05-15T11:59:23.613Z,44.83
2023-05-15T12:00:23.849Z,44.81
2023-05-15T12:01:23.561Z,44.82
2023-05-15T12:02:23.597Z,44.81
2023-05-15T12:03:23.605Z,44.81
2023-05-15T12:04:23.565Z,44.78
2023-05-15T12:05:23.495Z,44.80
2023-05-15T12:06:23.444Z,44.80
2023-05-15T12:07:23.421Z,44.80
2023-05-15T12:08:24.024Z,44.79
2023-05-15T12:09:23.427Z,44.76
2023-05-15T12:10:23.534Z,44.76
2023-05-15T12:11:23.372Z,44.77
2023-05-15T12:12:23.336Z,44.76
2023-05-15T12:13:23.313Z,44.75
2023-05-15T12:14:23.309Z,44.71
2023-05-15T12:15:23.295Z,44.72
2023-05-15T12:16:23.289Z,44.71
2023-05-15T12:17:23.315Z,44.66
2023-05-15T12:18:23.422Z,44.66
2023-05-15T12:19:23.638Z,44.65
2023-05-15T12:20:23.469Z,44.64
2023-05-15T12:21:23.400Z,44.63
2023-05-15T12:22:23.496Z,44.65
2023-05-15T12:23:23.548Z,44.62
2023-05-15T12:24:23.491Z,44.60
2023-05-15T12:25:23.518Z,44.57
2023-05-15T12:26:23.550Z,44.56
2023-05-15T12:27:23.576Z,44.55
2023-05-15T12:28:23.600Z,44.54
2023-05-15T12:29:23.649Z,44.51
2023-05-15T12:30:23.736Z,44.49
2023-05-15T12:31:23.738Z,44.55
2023-05-15T12:32:23.809Z,44.50
2023-05-15T12:33:23.770Z,44.54
2023-05-15T12:34:24.119Z,44.50
2023-05-15T12:35:23.806Z,44.47
2023-05-15T12:36:23.910Z,44.50
2023-05-15T12:37:23.854Z,44.44
2023-05-15T12:38:23.955Z,44.47
2023-05-15T12:39:23.913Z,44.44
2023-05-15T12:40:24.339Z,44.43
2023-05-15T12:41:23.962Z,44.41
2023-05-15T12:42:23.996Z,44.44
2023-05-15T12:43:24.024Z,44.42
2023-05-15T12:44:24.077Z,44.41
2023-05-15T12:45:24.090Z,44.39
2023-05-15T12:46:24.188Z,44.39
2023-05-15T12:47:24.167Z,44.37
2023-05-15T12:48:24.191Z,44.35
2023-05-15T12:49:24.224Z,44.30
2023-05-15T12:50:24.535Z,44.31
2023-05-15T12:51:24.267Z,44.31
2023-05-15T12:52:24.310Z,44.29